Time;durP1;ratioP1;P1;durP2;ratioP2;P2;SDS_P1;SDS_P2;PMS_P1;PMS_P2;Temp;Humidity;BMP_temperature;BMP_pressure;BME280_temperature;BME280_humidity;BME280_pressure;Samples;Min_cycle;Max_cycle;Signal;HPM_P1;HPM_P2
2021/09/09 00:01:07;;;;;;;3.10;2.60;;;18.80;81.90;;;;;;4997868;28;20030;-79
2021/09/09 00:03:34;;;;;;;3.05;2.47;;;18.90;81.60;;;;;;4994788;28;20022;-80
2021/09/09 00:06:01;;;;;;;2.80;2.47;;;19.00;79.30;;;;;;4992380;28;20065;-80
2021/09/09 00:08:29;;;;;;;3.38;2.78;;;19.10;80.90;;;;;;4993270;28;20029;-79
2021/09/09 00:10:57;;;;;;;2.55;2.40;;;19.20;81.50;;;;;;4999270;28;20560;-77
2021/09/09 00:13:24;;;;;;;2.70;2.50;;;19.30;79.00;;;;;;4994868;28;20494;-77
2021/09/09 00:15:51;;;;;;;3.15;2.78;;;19.30;78.40;;;;;;4993349;28;20027;-78
2021/09/09 00:18:19;;;;;;;3.08;2.65;;;19.40;77.00;;;;;;4993452;28;20030;-78
2021/09/09 00:20:46;;;;;;;3.00;2.80;;;19.50;77.60;;;;;;4993923;28;20026;-79
2021/09/09 00:23:15;;;;;;;3.05;2.40;;;19.50;77.40;;;;;;4993508;28;20066;-79
2021/09/09 00:25:42;;;;;;;3.03;2.72;;;19.70;78.00;;;;;;4994436;28;20029;-78
2021/09/09 00:28:09;;;;;;;3.22;2.60;;;19.90;78.30;;;;;;4996456;28;20019;-77
2021/09/09 00:30:37;;;;;;;2.83;2.60;;;20.10;76.80;;;;;;5011965;28;20029;-78
2021/09/09 00:33:08;;;;;;;3.80;2.75;;;20.30;80.20;;;;;;5005046;28;20022;-78
2021/09/09 00:35:37;;;;;;;4.32;2.80;;;20.60;78.70;;;;;;4998542;28;20018;-79
2021/09/09 00:38:05;;;;;;;2.28;2.17;;;20.70;75.50;;;;;;4998016;28;20081;-80
2021/09/09 00:40:33;;;;;;;3.63;2.45;;;20.70;76.20;;;;;;4998467;28;20443;-79
2021/09/09 00:43:01;;;;;;;3.15;2.40;;;20.80;74.90;;;;;;5001142;28;20022;-78
2021/09/09 00:45:32;;;;;;;3.40;2.20;;;20.90;74.40;;;;;;5004254;28;20125;-78
2021/09/09 00:47:59;;;;;;;2.70;2.08;;;21.00;72.60;;;;;;5006376;28;20027;-78
2021/09/09 00:50:27;;;;;;;2.30;2.20;;;21.10;73.00;;;;;;5010390;28;20031;-78
2021/09/09 00:52:54;;;;;;;3.35;2.05;;;21.20;72.70;;;;;;5007661;28;20050;-79
2021/09/09 00:55:22;;;;;;;2.38;2.17;;;21.30;73.00;;;;;;4999676;28;20032;-79
2021/09/09 00:57:50;;;;;;;2.60;2.40;;;21.30;73.20;;;;;;5004545;28;20031;-79
2021/09/09 01:00:17;;;;;;;2.80;2.60;;;21.30;72.00;;;;;;5002934;28;20084;-79
2021/09/09 01:02:45;;;;;;;2.50;2.40;;;21.60;71.10;;;;;;4998233;28;20054;-78
2021/09/09 01:05:12;;;;;;;2.58;2.38;;;21.50;70.10;;;;;;4997796;28;20022;-79
2021/09/09 01:07:41;;;;;;;3.05;2.33;;;21.50;70.40;;;;;;4997228;28;20050;-80
2021/09/09 01:10:09;;;;;;;3.28;2.60;;;21.50;71.20;;;;;;4997682;28;20030;-81
2021/09/09 01:12:36;;;;;;;3.15;2.90;;;21.50;71.40;;;;;;4997727;28;20026;-79
2021/09/09 01:15:05;;;;;;;2.72;2.53;;;21.40;71.00;;;;;;4996927;28;20459;-78
2021/09/09 01:17:32;;;;;;;2.85;2.47;;;21.50;71.10;;;;;;4996377;28;20026;-78
2021/09/09 01:20:00;;;;;;;3.38;2.80;;;21.50;68.70;;;;;;4998165;28;20076;-77
2021/09/09 01:22:27;;;;;;;3.45;2.40;;;21.50;67.90;;;;;;5002272;28;20546;-79
2021/09/09 01:24:55;;;;;;;2.60;2.40;;;21.50;67.40;;;;;;4997577;28;20024;-79
2021/09/09 01:27:22;;;;;;;2.78;2.50;;;21.80;65.90;;;;;;5000590;28;20031;-77
2021/09/09 01:29:50;;;;;;;2.85;2.65;;;22.10;62.60;;;;;;5007466;28;20099;-78
2021/09/09 01:32:19;;;;;;;9.30;2.90;;;22.50;66.40;;;;;;5010207;28;20431;-79
2021/09/09 01:34:46;;;;;;;2.70;2.50;;;23.00;64.10;;;;;;4999243;28;20028;-78
2021/09/09 01:37:14;;;;;;;2.47;2.30;;;23.00;61.50;;;;;;5000743;28;20031;-76
2021/09/09 01:39:44;;;;;;;3.03;2.72;;;23.00;61.50;;;;;;4998688;28;20037;-78
2021/09/09 01:42:12;;;;;;;3.83;2.80;;;22.90;61.40;;;;;;4999154;28;20364;-78
2021/09/09 01:44:40;;;;;;;2.42;2.30;;;23.00;60.90;;;;;;5008834;28;20033;-78
2021/09/09 01:47:07;;;;;;;2.60;2.50;;;22.90;60.00;;;;;;5004296;28;20033;-79
2021/09/09 01:49:35;;;;;;;2.83;2.65;;;23.10;62.10;;;;;;5008106;28;20030;-78
2021/09/09 01:52:02;;;;;;;2.70;2.45;;;23.40;62.70;;;;;;5010534;28;20026;-76
2021/09/09 01:54:29;;;;;;;2.65;2.55;;;23.70;62.60;;;;;;5008188;28;20026;-77
2021/09/09 01:56:57;;;;;;;2.53;2.40;;;23.70;59.30;;;;;;5007850;28;20041;-78
2021/09/09 01:59:24;;;;;;;2.78;2.40;;;23.60;59.60;;;;;;5002371;28;20030;-77
2021/09/09 02:01:51;;;;;;;4.10;2.92;;;23.80;60.80;;;;;;4999263;28;20112;-79
2021/09/09 02:04:19;;;;;;;2.50;2.30;;;24.00;58.90;;;;;;4996018;28;20036;-81
2021/09/09 02:06:46;;;;;;;2.10;2.00;;;24.10;61.20;;;;;;4995265;28;20457;-80
2021/09/09 02:09:13;;;;;;;2.67;2.20;;;24.20;58.30;;;;;;4995288;28;20022;-80
2021/09/09 02:11:41;;;;;;;2.30;1.90;;;24.30;57.20;;;;;;4996160;28;20026;-80
2021/09/09 02:14:09;;;;;;;2.10;2.00;;;24.60;57.40;;;;;;4998533;28;20035;-79
2021/09/09 02:16:36;;;;;;;1.92;1.77;;;25.00;58.30;;;;;;4996447;28;20022;-78
2021/09/09 02:19:03;;;;;;;2.72;2.03;;;25.00;55.20;;;;;;4994815;28;20476;-79
2021/09/09 02:21:32;;;;;;;1.70;1.60;;;25.20;54.30;;;;;;4995826;28;20024;-80
2021/09/09 02:23:59;;;;;;;2.10;2.00;;;25.20;54.20;;;;;;4996593;28;20038;-80
2021/09/09 02:26:27;;;;;;;2.30;2.10;;;25.10;52.80;;;;;;4996119;28;20023;-79
2021/09/09 02:28:54;;;;;;;2.20;2.10;;;25.20;54.40;;;;;;4994925;28;20031;-78
2021/09/09 02:31:21;;;;;;;2.30;2.20;;;25.50;53.00;;;;;;4997917;28;20497;-78
2021/09/09 02:33:49;;;;;;;2.70;2.60;;;25.90;54.20;;;;;;4994538;28;20033;-79
2021/09/09 02:36:16;;;;;;;2.70;2.50;;;26.10;49.00;;;;;;4994857;28;20437;-79
2021/09/09 02:38:43;;;;;;;2.33;2.22;;;26.20;47.10;;;;;;4996378;28;20518;-79
2021/09/09 02:41:11;;;;;;;2.30;2.20;;;26.30;46.70;;;;;;4994921;28;20022;-80
2021/09/09 02:43:38;;;;;;;1.90;1.80;;;26.50;45.80;;;;;;4994800;28;20049;-80
2021/09/09 02:46:05;;;;;;;2.05;1.83;;;26.50;45.20;;;;;;4994936;28;20380;-80
2021/09/09 02:48:33;;;;;;;2.00;1.75;;;26.70;46.80;;;;;;4995373;28;20030;-79
2021/09/09 02:51:00;;;;;;;2.00;1.90;;;26.60;45.10;;;;;;4993830;28;20498;-80
2021/09/09 02:53:27;;;;;;;2.30;2.20;;;26.60;44.00;;;;;;4993806;28;20050;-80
2021/09/09 02:55:55;;;;;;;1.90;1.80;;;26.80;43.80;;;;;;4994647;28;20030;-80
2021/09/09 02:58:22;;;;;;;2.35;1.80;;;26.80;47.50;;;;;;4995846;28;20022;-79
2021/09/09 03:00:49;;;;;;;1.90;1.80;;;26.90;45.40;;;;;;4995929;28;20537;-80
2021/09/09 03:03:17;;;;;;;2.90;2.70;;;26.90;45.70;;;;;;4996907;28;20027;-79
2021/09/09 03:05:44;;;;;;;2.50;2.30;;;26.80;45.90;;;;;;4994604;28;20038;-81
2021/09/09 03:08:11;;;;;;;2.50;2.30;;;26.90;45.80;;;;;;4994225;28;20117;-80
2021/09/09 03:10:39;;;;;;;2.50;2.40;;;27.00;46.40;;;;;;4996299;28;20034;-80
2021/09/09 03:13:06;;;;;;;3.17;2.97;;;27.30;47.50;;;;;;4995650;28;20046;-80
2021/09/09 03:15:33;;;;;;;2.88;2.75;;;27.50;45.40;;;;;;4994862;28;20034;-79
2021/09/09 03:18:01;;;;;;;3.15;2.95;;;27.20;45.50;;;;;;4994502;28;20445;-79
2021/09/09 03:20:28;;;;;;;3.58;3.30;;;27.10;46.10;;;;;;4993991;28;20470;-80
2021/09/09 03:22:56;;;;;;;3.38;3.17;;;27.20;45.70;;;;;;4997168;28;20053;-79
2021/09/09 03:25:23;;;;;;;3.92;3.50;;;27.30;46.60;;;;;;4995260;28;20088;-79
2021/09/09 03:27:50;;;;;;;4.03;3.72;;;27.20;47.00;;;;;;4994466;28;20034;-79
2021/09/09 03:30:18;;;;;;;3.90;3.70;;;27.30;46.30;;;;;;4994860;28;20042;-79
2021/09/09 03:32:45;;;;;;;4.15;3.80;;;27.20;47.70;;;;;;4995914;28;20023;-80
2021/09/09 03:35:12;;;;;;;4.43;3.85;;;27.40;47.10;;;;;;4993823;28;20026;-81
2021/09/09 03:37:40;;;;;;;4.75;4.35;;;27.40;47.50;;;;;;4995321;28;20019;-79
2021/09/09 03:40:07;;;;;;;3.95;3.65;;;27.30;48.00;;;;;;4995753;28;20061;-79
2021/09/09 03:42:35;;;;;;;4.05;3.80;;;27.30;47.90;;;;;;4995115;28;20076;-78
2021/09/09 03:45:05;;;;;;;3.13;2.92;;;27.40;47.50;;;;;;4996761;28;20026;-79
2021/09/09 03:47:32;;;;;;;3.30;3.10;;;27.30;46.70;;;;;;4997238;28;20057;-79
2021/09/09 03:49:59;;;;;;;2.58;2.40;;;27.40;46.60;;;;;;4995446;28;20491;-77
2021/09/09 03:52:27;;;;;;;2.85;2.65;;;27.20;47.20;;;;;;4994279;28;20046;-79
2021/09/09 03:54:54;;;;;;;2.95;2.58;;;27.20;47.70;;;;;;4996511;28;20023;-78
2021/09/09 03:57:23;;;;;;;4.60;3.30;;;26.90;48.70;;;;;;4979570;28;20060;-83
2021/09/09 03:59:50;;;;;;;3.10;2.90;;;26.90;48.40;;;;;;4994926;28;20022;-75
2021/09/09 04:02:18;;;;;;;3.15;2.60;;;27.00;49.30;;;;;;4995704;28;20026;-80
2021/09/09 04:04:45;;;;;;;3.00;2.67;;;27.00;49.50;;;;;;4995484;28;20144;-80
2021/09/09 04:07:12;;;;;;;2.63;2.53;;;27.10;49.80;;;;;;4994577;28;20503;-78
2021/09/09 04:09:40;;;;;;;3.45;3.00;;;27.00;49.80;;;;;;4992982;28;20114;-80
2021/09/09 04:12:09;;;;;;;;;;;27.10;50.30;;;;;;4995075;28;20440;-80
2021/09/09 04:14:37;;;;;;;3.55;3.25;;;27.30;50.10;;;;;;4994792;28;19906;-78
2021/09/09 04:17:04;;;;;;;3.20;3.00;;;27.50;51.00;;;;;;4992993;28;20574;-78
2021/09/09 04:19:32;;;;;;;3.70;3.35;;;27.90;51.90;;;;;;4994297;28;20073;-80
2021/09/09 04:22:02;;;;;;;3.47;3.20;;;28.30;51.90;;;;;;4995957;28;20061;-78
2021/09/09 04:24:31;;;;;;;3.38;3.10;;;28.40;51.60;;;;;;4997673;28;20053;-81
2021/09/09 04:26:58;;;;;;;3.22;3.03;;;28.20;51.60;;;;;;5012268;28;20049;-79
2021/09/09 04:29:26;;;;;;;3.80;3.17;;;28.20;50.00;;;;;;5009387;28;20095;-80
2021/09/09 04:31:53;;;;;;;3.25;2.83;;;28.20;50.00;;;;;;5013921;28;20046;-79
2021/09/09 04:34:21;;;;;;;3.80;2.85;;;28.00;48.90;;;;;;5008671;28;20029;-83
2021/09/09 04:36:48;;;;;;;3.60;3.30;;;28.00;49.20;;;;;;4996532;28;20375;-82
2021/09/09 04:39:15;;;;;;;4.97;3.90;;;28.00;49.40;;;;;;4995992;28;20363;-81
2021/09/09 04:41:43;;;;;;;4.43;4.13;;;27.90;50.40;;;;;;4997116;28;20034;-80
2021/09/09 04:44:10;;;;;;;5.43;4.00;;;28.00;50.10;;;;;;4994856;28;20113;-81
2021/09/09 04:46:38;;;;;;;4.78;4.25;;;28.00;52.20;;;;;;4996109;28;20030;-81
2021/09/09 04:49:05;;;;;;;5.70;4.90;;;28.00;51.60;;;;;;4993506;28;20364;-81
2021/09/09 04:51:32;;;;;;;4.63;4.18;;;28.10;52.50;;;;;;4995541;28;20030;-81
2021/09/09 04:54:00;;;;;;;4.40;4.10;;;28.20;51.90;;;;;;4995851;28;20034;-82
2021/09/09 04:56:27;;;;;;;3.92;3.60;;;28.10;51.30;;;;;;4996009;28;20050;-83
2021/09/09 04:58:54;;;;;;;3.50;3.30;;;28.00;50.80;;;;;;5009507;28;20029;-83
2021/09/09 05:01:22;;;;;;;4.10;3.70;;;28.00;50.60;;;;;;5010710;28;20010;-81
2021/09/09 05:03:49;;;;;;;3.55;3.30;;;28.00;51.00;;;;;;5009130;28;20027;-83
2021/09/09 05:06:16;;;;;;;6.97;3.40;;;28.00;49.80;;;;;;5003436;28;20022;-79
2021/09/09 05:08:44;;;;;;;3.95;3.10;;;28.10;51.20;;;;;;4999914;28;20027;-78
2021/09/09 05:11:12;;;;;;;3.03;2.80;;;28.10;51.80;;;;;;5008151;28;20019;-83
2021/09/09 05:13:39;;;;;;;2.90;2.70;;;28.10;49.90;;;;;;5007516;28;20014;-84
2021/09/09 05:16:07;;;;;;;3.78;2.67;;;28.00;49.30;;;;;;5007124;28;20022;-81
2021/09/09 05:18:34;;;;;;;2.90;2.70;;;28.10;50.10;;;;;;5001710;28;20026;-82
2021/09/09 05:21:02;;;;;;;2.38;2.28;;;28.10;49.60;;;;;;5006556;28;20022;-77
2021/09/09 05:23:32;;;;;;;2.40;2.30;;;28.10;47.60;;;;;;5011973;28;20022;-76
2021/09/09 05:25:59;;;;;;;2.70;2.42;;;28.10;45.10;;;;;;5014601;28;20035;-77
2021/09/09 05:28:27;;;;;;;3.72;2.70;;;28.00;44.10;;;;;;5017821;28;20106;-77
2021/09/09 05:30:54;;;;;;;2.47;2.38;;;27.90;44.10;;;;;;5018013;28;20034;-76
2021/09/09 05:33:21;;;;;;;2.75;2.60;;;27.90;43.30;;;;;;5014241;28;20010;-77
2021/09/09 05:35:49;;;;;;;2.53;2.40;;;27.80;43.40;;;;;;5014598;28;20029;-77
2021/09/09 05:38:16;;;;;;;2.80;2.60;;;27.80;42.80;;;;;;5015840;28;20026;-77
2021/09/09 05:40:43;;;;;;;2.55;2.45;;;27.80;43.70;;;;;;5015582;28;20046;-76
2021/09/09 05:43:11;;;;;;;3.08;2.70;;;27.80;43.10;;;;;;5013264;28;20029;-76
2021/09/09 05:45:38;;;;;;;2.58;2.47;;;27.60;42.60;;;;;;5011424;28;20203;-75
2021/09/09 05:48:06;;;;;;;2.78;2.67;;;27.60;43.10;;;;;;5014524;28;20216;-75
2021/09/09 05:50:33;;;;;;;2.72;2.63;;;27.50;43.50;;;;;;5014957;28;20029;-77
2021/09/09 05:53:00;;;;;;;3.00;2.80;;;27.40;43.30;;;;;;5008979;28;20407;-77
2021/09/09 05:55:28;;;;;;;3.10;2.80;;;27.40;44.30;;;;;;5005942;28;20042;-77
2021/09/09 05:57:55;;;;;;;3.00;2.90;;;27.30;44.90;;;;;;5003749;28;20018;-77
2021/09/09 06:00:24;;;;;;;2.90;2.70;;;27.20;44.60;;;;;;5014800;28;20070;-77
2021/09/09 06:02:52;;;;;;;3.00;2.80;;;27.20;44.20;;;;;;5008724;28;20061;-77
2021/09/09 06:05:19;;;;;;;2.90;2.70;;;27.20;45.30;;;;;;5006076;28;20036;-76
2021/09/09 06:07:47;;;;;;;2.97;2.78;;;27.10;46.10;;;;;;5009543;28;20502;-77
2021/09/09 06:10:14;;;;;;;2.83;2.72;;;27.00;46.50;;;;;;5009887;28;20101;-76
2021/09/09 06:12:41;;;;;;;2.88;2.67;;;26.90;45.40;;;;;;5005285;28;20018;-76
2021/09/09 06:15:09;;;;;;;2.55;2.45;;;26.70;45.10;;;;;;5010422;28;20034;-77
2021/09/09 06:17:37;;;;;;;2.70;2.50;;;26.50;45.70;;;;;;5010794;28;20019;-78
2021/09/09 06:20:07;;;;;;;2.78;2.58;;;26.40;45.70;;;;;;5016513;28;20031;-79
2021/09/09 06:22:34;;;;;;;2.78;2.67;;;26.30;46.30;;;;;;5007524;28;20030;-78
2021/09/09 06:25:01;;;;;;;2.97;2.80;;;26.30;46.50;;;;;;5013147;28;20030;-77
2021/09/09 06:27:29;;;;;;;3.35;2.90;;;26.20;46.40;;;;;;5013383;28;20042;-79
2021/09/09 06:29:56;;;;;;;2.63;2.53;;;26.10;46.90;;;;;;5009140;28;20038;-78
2021/09/09 06:32:25;;;;;;;2.70;2.50;;;26.00;46.50;;;;;;5009976;28;20022;-81
2021/09/09 06:34:52;;;;;;;2.85;2.75;;;25.90;46.80;;;;;;5009485;28;20023;-81
2021/09/09 06:37:19;;;;;;;3.45;2.78;;;25.80;48.00;;;;;;5010012;28;20029;-78
2021/09/09 06:39:47;;;;;;;2.92;2.75;;;25.60;48.60;;;;;;5012531;28;20022;-78
2021/09/09 06:42:14;;;;;;;4.72;2.55;;;25.50;48.10;;;;;;5008264;28;20132;-84
2021/09/09 06:44:42;;;;;;;3.10;3.00;;;25.50;47.80;;;;;;5011831;28;20022;-79
2021/09/09 06:47:09;;;;;;;2.78;2.67;;;25.40;47.90;;;;;;5005108;28;20036;-81
2021/09/09 06:49:36;;;;;;;3.20;3.00;;;25.30;49.90;;;;;;4994632;28;20088;-80
2021/09/09 06:52:04;;;;;;;2.63;2.47;;;25.10;48.00;;;;;;4997777;28;20029;-81
2021/09/09 06:54:31;;;;;;;3.45;2.80;;;25.10;48.20;;;;;;4995637;28;20387;-80
2021/09/09 06:56:59;;;;;;;2.92;2.72;;;25.00;48.30;;;;;;4994575;28;20035;-81
2021/09/09 06:59:26;;;;;;;2.80;2.70;;;24.90;48.70;;;;;;4996048;28;20054;-80
2021/09/09 07:01:53;;;;;;;4.85;2.90;;;24.80;49.10;;;;;;4996290;28;20022;-81
2021/09/09 07:04:21;;;;;;;2.65;2.55;;;24.80;48.80;;;;;;4997460;28;20495;-81
2021/09/09 07:06:48;;;;;;;2.97;2.70;;;24.70;49.20;;;;;;4996761;28;20050;-81
2021/09/09 07:09:15;;;;;;;3.38;3.17;;;24.60;49.00;;;;;;4997208;28;20105;-82
2021/09/09 07:11:43;;;;;;;3.15;2.90;;;24.60;50.00;;;;;;4996497;28;20041;-80
2021/09/09 07:14:10;;;;;;;2.70;2.60;;;24.50;49.30;;;;;;4995938;28;20098;-81
2021/09/09 07:16:39;;;;;;;2.60;2.40;;;24.50;49.50;;;;;;4995975;28;20126;-80
2021/09/09 07:19:06;;;;;;;2.67;2.47;;;24.40;49.80;;;;;;4994291;28;20030;-82
2021/09/09 07:21:33;;;;;;;2.88;2.70;;;24.20;49.90;;;;;;4996824;28;20101;-81
2021/09/09 07:24:01;;;;;;;2.88;2.78;;;24.10;50.60;;;;;;4995951;28;20033;-82
2021/09/09 07:26:30;;;;;;;3.13;2.83;;;24.00;50.20;;;;;;4995489;28;20061;-80
2021/09/09 07:28:57;;;;;;;2.60;2.50;;;23.90;51.00;;;;;;4980469;28;20031;-80
2021/09/09 07:31:25;;;;;;;3.17;2.42;;;23.90;50.40;;;;;;5004294;28;20049;-77
2021/09/09 07:33:52;;;;;;;2.90;2.70;;;23.90;50.10;;;;;;5000832;28;20110;-79
2021/09/09 07:36:19;;;;;;;2.80;2.60;;;23.80;50.50;;;;;;5001269;28;20049;-75
2021/09/09 07:38:47;;;;;;;3.15;2.90;;;23.70;50.30;;;;;;4995487;28;20026;-77
2021/09/09 07:41:15;;;;;;;3.10;2.90;;;23.70;50.10;;;;;;4996843;28;20027;-76
2021/09/09 07:43:42;;;;;;;2.65;2.50;;;23.60;50.00;;;;;;4996450;28;20034;-75
2021/09/09 07:46:09;;;;;;;2.90;2.70;;;23.40;50.40;;;;;;4994070;28;20101;-75
2021/09/09 07:48:37;;;;;;;3.00;2.85;;;23.30;50.80;;;;;;4998791;28;20060;-78
2021/09/09 07:51:04;;;;;;;2.55;2.45;;;23.30;50.60;;;;;;5005971;28;20031;-82
2021/09/09 07:53:31;;;;;;;3.00;2.80;;;23.20;50.80;;;;;;5009777;28;20061;-80
2021/09/09 07:56:00;;;;;;;2.80;2.60;;;23.10;51.30;;;;;;5006457;28;20030;-80
2021/09/09 07:58:27;;;;;;;2.80;2.70;;;23.00;51.10;;;;;;5002694;28;20484;-82
2021/09/09 08:00:55;;;;;;;3.63;3.33;;;22.90;50.90;;;;;;4998547;28;20030;-83
2021/09/09 08:03:22;;;;;;;2.60;2.50;;;22.80;51.30;;;;;;5000096;28;20034;-81
2021/09/09 08:05:49;;;;;;;2.70;2.60;;;22.70;52.00;;;;;;5004640;28;20030;-81
2021/09/09 08:08:16;;;;;;;2.92;2.60;;;22.70;52.30;;;;;;5007513;28;20026;-77
2021/09/09 08:10:47;;;;;;;2.90;2.72;;;22.50;52.30;;;;;;5008304;28;20014;-80
2021/09/09 08:13:15;;;;;;;2.95;2.75;;;22.30;52.70;;;;;;5001197;28;20105;-82
2021/09/09 08:15:42;;;;;;;3.38;3.13;;;22.20;52.30;;;;;;4999352;28;20026;-80
2021/09/09 08:18:09;;;;;;;3.20;2.97;;;22.20;52.60;;;;;;4999551;28;20027;-82
2021/09/09 08:20:37;;;;;;;3.00;2.90;;;22.00;53.30;;;;;;5003225;28;20027;-81
2021/09/09 08:23:04;;;;;;;2.83;2.60;;;22.00;52.10;;;;;;5005001;28;20033;-81
2021/09/09 08:25:32;;;;;;;2.90;2.80;;;22.00;52.30;;;;;;4997448;28;20108;-79
2021/09/09 08:27:59;;;;;;;3.00;2.80;;;21.90;52.20;;;;;;5001141;28;20390;-81
2021/09/09 08:30:26;;;;;;;3.28;3.08;;;21.80;52.30;;;;;;4999871;28;20033;-80
2021/09/09 08:32:54;;;;;;;5.85;3.22;;;21.80;52.10;;;;;;5001973;28;20022;-80
2021/09/09 08:35:23;;;;;;;3.30;3.10;;;21.80;51.70;;;;;;4996384;28;20153;-80
2021/09/09 08:37:51;;;;;;;2.30;2.20;;;21.80;52.10;;;;;;4993359;28;20025;-79
2021/09/09 08:40:21;;;;;;;3.38;3.17;;;21.80;51.50;;;;;;4997043;28;20014;-80
2021/09/09 08:42:49;;;;;;;3.20;2.90;;;21.70;51.70;;;;;;4998855;28;20457;-79
2021/09/09 08:45:16;;;;;;;2.70;2.50;;;21.60;51.30;;;;;;5001815;28;20065;-79
2021/09/09 08:47:46;;;;;;;3.10;2.90;;;21.70;51.60;;;;;;5000794;28;20143;-78
2021/09/09 08:50:14;;;;;;;2.97;2.77;;;21.60;52.30;;;;;;5011917;28;20007;-78
2021/09/09 08:52:41;;;;;;;3.00;2.80;;;21.60;52.20;;;;;;5020103;28;20303;-79
2021/09/09 08:55:09;;;;;;;3.05;2.85;;;21.40;52.40;;;;;;5012835;28;20026;-78
2021/09/09 08:57:36;;;;;;;2.95;2.75;;;21.30;51.70;;;;;;5018724;28;20030;-80
2021/09/09 09:00:06;;;;;;;3.25;3.05;;;21.20;51.40;;;;;;5017425;28;20057;-81
2021/09/09 09:02:51;;;;;;;3.35;3.08;;;21.20;51.40;;;;;;5007687;28;20019;-79
2021/09/09 09:05:19;;;;;;;3.30;3.00;;;21.30;50.90;;;;;;5010267;28;20045;-77
2021/09/09 09:07:59;;;;;;;3.40;3.10;;;21.30;50.40;;;;;;5016126;28;20043;-77
2021/09/09 09:10:28;;;;;;;3.25;3.05;;;21.40;49.50;;;;;;5018462;28;20106;-76
2021/09/09 09:12:55;;;;;;;3.00;2.90;;;21.30;49.40;;;;;;5006452;28;20074;-79
2021/09/09 09:15:29;;;;;;;3.03;2.83;;;21.20;49.40;;;;;;5002947;28;20023;-80
2021/09/09 09:18:10;;;;;;;2.88;2.78;;;21.20;50.10;;;;;;4999580;28;20026;-80
2021/09/09 09:20:47;;;;;;;2.78;2.67;;;21.10;49.20;;;;;;5001030;28;20030;-81
2021/09/09 09:23:26;;;;;;;2.75;2.65;;;21.10;48.40;;;;;;5003347;28;20614;-79
2021/09/09 09:25:58;;;;;;;2.90;2.70;;;21.10;48.60;;;;;;5000798;28;20023;-80
2021/09/09 09:28:38;;;;;;;3.10;2.90;;;21.00;48.90;;;;;;5000947;28;20038;-79
2021/09/09 09:31:14;;;;;;;2.13;2.03;;;20.90;49.40;;;;;;5002424;28;20026;-79
2021/09/09 09:33:54;;;;;;;2.60;2.50;;;20.80;48.50;;;;;;5000593;28;20494;-79
2021/09/09 09:36:37;;;;;;;2.45;2.20;;;20.90;47.80;;;;;;4997676;28;20403;-80
2021/09/09 09:39:10;;;;;;;2.40;2.30;;;20.90;47.50;;;;;;4996967;28;20403;-82
2021/09/09 09:41:40;;;;;;;2.53;2.40;;;20.90;47.60;;;;;;4996000;28;20037;-82
2021/09/09 09:44:09;;;;;;;2.63;2.50;;;20.80;47.50;;;;;;4994993;28;20105;-79
2021/09/09 09:46:40;;;;;;;2.80;2.60;;;20.90;47.30;;;;;;4994625;28;20026;-78
2021/09/09 09:49:29;;;;;;;3.72;2.45;;;20.80;47.10;;;;;;4996119;28;20487;-79
2021/09/09 09:52:00;;;;;;;2.90;2.65;;;20.90;46.80;;;;;;4994784;28;20022;-78
2021/09/09 09:54:29;;;;;;;2.65;2.45;;;21.00;46.50;;;;;;4978637;28;20117;-79
2021/09/09 09:56:58;;;;;;;2.30;2.20;;;20.90;46.70;;;;;;4996613;28;20027;-79
2021/09/09 09:59:25;;;;;;;2.33;2.22;;;20.90;46.60;;;;;;4999542;28;20026;-80
2021/09/09 10:01:53;;;;;;;3.00;2.80;;;20.90;46.50;;;;;;4997599;28;20057;-80
2021/09/09 10:04:22;;;;;;;2.50;2.40;;;20.80;46.80;;;;;;5006887;28;20106;-80
2021/09/09 10:06:51;;;;;;;2.63;2.40;;;20.70;48.30;;;;;;4996462;28;20121;-80
2021/09/09 10:09:20;;;;;;;2.53;2.33;;;20.60;48.30;;;;;;4997154;28;20475;-79
2021/09/09 10:11:48;;;;;;;2.80;2.60;;;20.60;47.10;;;;;;4995823;28;20109;-80
2021/09/09 10:14:25;;;;;;;2.70;2.50;;;20.40;47.90;;;;;;4997097;28;20106;-80
2021/09/09 10:16:57;;;;;;;2.50;2.40;;;20.40;47.50;;;;;;4996306;28;20018;-80
2021/09/09 10:19:27;;;;;;;2.55;2.45;;;20.40;48.10;;;;;;4996899;28;20026;-79
2021/09/09 10:22:11;;;;;;;2.90;2.70;;;20.30;48.50;;;;;;4996072;28;20026;-78
2021/09/09 10:24:49;;;;;;;2.67;2.53;;;20.30;48.90;;;;;;4997824;28;20088;-80
2021/09/09 10:27:23;;;;;;;2.90;2.70;;;20.30;49.30;;;;;;4997843;28;20037;-80
2021/09/09 10:29:53;;;;;;;2.40;2.30;;;20.30;50.80;;;;;;4996715;28;20022;-80
2021/09/09 10:32:33;;;;;;;2.60;2.50;;;20.20;50.70;;;;;;5002094;28;20475;-79
2021/09/09 10:35:19;;;;;;;2.90;2.80;;;20.10;50.50;;;;;;5002462;28;20094;-80
2021/09/09 10:37:57;;;;;;;2.90;2.70;;;20.00;52.80;;;;;;5001112;28;20030;-82
2021/09/09 10:40:38;;;;;;;3.55;3.25;;;19.80;51.70;;;;;;5001970;28;20109;-82
2021/09/09 10:43:30;;;;;;;4.65;3.80;;;19.80;51.80;;;;;;4998582;28;20049;-80
2021/09/09 10:46:01;;;;;;;3.53;3.33;;;19.70;52.90;;;;;;5005932;28;20046;-80
2021/09/09 10:48:30;;;;;;;3.38;3.17;;;19.70;52.50;;;;;;5013240;28;20022;-77
2021/09/09 10:51:19;;;;;;;3.38;3.10;;;19.70;52.50;;;;;;5009202;28;20029;-79
2021/09/09 10:53:53;;;;;;;2.80;2.70;;;19.70;53.40;;;;;;5010374;28;20043;-78
2021/09/09 10:56:34;;;;;;;3.00;2.83;;;19.70;53.40;;;;;;5010585;28;20051;-78
2021/09/09 10:59:14;;;;;;;2.80;2.67;;;19.90;52.50;;;;;;5014413;28;20022;-78
2021/09/09 11:01:46;;;;;;;3.00;2.80;;;19.90;53.00;;;;;;5002829;28;20023;-79
2021/09/09 11:04:34;;;;;;;3.10;3.00;;;19.80;53.90;;;;;;5008059;28;20018;-79
2021/09/09 11:07:03;;;;;;;2.92;2.80;;;19.70;53.70;;;;;;5001615;28;20022;-79
2021/09/09 11:09:31;;;;;;;3.00;2.90;;;19.70;54.70;;;;;;5000498;28;20031;-79
2021/09/09 11:12:01;;;;;;;2.90;2.70;;;19.60;53.90;;;;;;4994375;28;20549;-79
2021/09/09 11:14:29;;;;;;;;;;;19.40;54.30;;;;;;4993747;28;20038;-80
2021/09/09 11:16:56;;;;;;;3.08;2.97;;;19.30;54.90;;;;;;4994125;28;19913;-80
2021/09/09 11:19:24;;;;;;;3.25;3.05;;;19.20;55.20;;;;;;4994632;28;20022;-81
2021/09/09 11:21:53;;;;;;;3.00;2.90;;;19.10;56.10;;;;;;4994827;28;20060;-81
2021/09/09 11:24:21;;;;;;;3.05;2.95;;;19.00;55.80;;;;;;4994873;28;20049;-81
2021/09/09 11:26:51;;;;;;;3.10;3.00;;;18.80;56.00;;;;;;4994538;28;20030;-81
2021/09/09 11:29:23;;;;;;;3.28;3.05;;;18.60;57.00;;;;;;4993509;28;20037;-80
2021/09/09 11:31:56;;;;;;;2.85;2.72;;;18.40;58.50;;;;;;4995594;28;20022;-80
2021/09/09 11:34:30;;;;;;;3.30;3.10;;;18.20;58.50;;;;;;5001298;28;20021;-81
2021/09/09 11:37:01;;;;;;;3.10;3.00;;;18.10;58.80;;;;;;5007979;28;20026;-77
2021/09/09 11:39:33;;;;;;;3.20;3.00;;;18.00;59.20;;;;;;5007440;28;20034;-79
2021/09/09 11:42:01;;;;;;;3.33;3.03;;;17.90;60.10;;;;;;4995581;28;20105;-80
2021/09/09 11:44:36;;;;;;;3.50;3.30;;;17.90;60.10;;;;;;5002046;28;20096;-79
2021/09/09 11:47:14;;;;;;;3.30;3.10;;;17.80;60.20;;;;;;5005159;28;20026;-79
2021/09/09 11:49:41;;;;;;;3.47;3.17;;;17.70;61.20;;;;;;5001671;28;20069;-79
2021/09/09 11:52:10;;;;;;;3.50;3.30;;;17.60;62.50;;;;;;5008418;28;20038;-78
2021/09/09 11:54:39;;;;;;;3.25;3.05;;;17.50;63.10;;;;;;4997711;28;20025;-80
2021/09/09 11:57:08;;;;;;;3.55;3.35;;;17.30;63.70;;;;;;5000357;28;20041;-79
2021/09/09 11:59:37;;;;;;;3.40;3.20;;;17.20;63.90;;;;;;5011000;28;20030;-78
2021/09/09 12:02:09;;;;;;;3.42;3.22;;;17.10;65.10;;;;;;5014529;28;20034;-79
2021/09/09 12:04:42;;;;;;;3.78;3.50;;;17.00;65.50;;;;;;5013472;28;20030;-79
2021/09/09 12:07:17;;;;;;;3.53;3.22;;;16.90;66.30;;;;;;5014757;28;20030;-79
2021/09/09 12:10:14;;;;;;;3.55;3.25;;;16.80;66.30;;;;;;5000081;28;20101;-79
2021/09/09 12:12:54;;;;;;;3.83;3.60;;;16.70;66.90;;;;;;4998897;28;20021;-80
2021/09/09 12:15:25;;;;;;;3.95;3.65;;;16.60;66.60;;;;;;4998678;28;20023;-78
2021/09/09 12:17:52;;;;;;;3.85;3.55;;;16.50;68.30;;;;;;4984107;28;20045;-81
2021/09/09 12:20:28;;;;;;;3.92;3.72;;;16.40;68.90;;;;;;5006315;28;20027;-78
2021/09/09 12:23:00;;;;;;;4.07;3.78;;;16.40;68.50;;;;;;5007252;28;20051;-78
2021/09/09 12:25:39;;;;;;;3.50;3.30;;;16.30;68.60;;;;;;5009005;28;20521;-78
2021/09/09 12:28:15;;;;;;;3.92;3.63;;;16.20;69.40;;;;;;5014669;28;20022;-78
2021/09/09 12:30:50;;;;;;;3.95;3.45;;;16.10;70.70;;;;;;5010564;28;20027;-79
2021/09/09 12:33:28;;;;;;;4.28;3.88;;;16.10;70.80;;;;;;5011857;28;20024;-79
2021/09/09 12:36:02;;;;;;;3.55;3.35;;;16.10;70.50;;;;;;5012130;28;20018;-79
2021/09/09 12:38:43;;;;;;;3.88;3.67;;;16.10;69.40;;;;;;5007435;28;20086;-78
2021/09/09 12:41:27;;;;;;;5.20;4.03;;;16.00;69.70;;;;;;5014388;28;20119;-79
2021/09/09 12:44:13;;;;;;;4.28;3.80;;;16.00;69.60;;;;;;5004551;28;20415;-79
2021/09/09 12:46:46;;;;;;;4.70;4.30;;;16.00;69.80;;;;;;5002386;28;20033;-78
2021/09/09 12:49:24;;;;;;;5.32;4.88;;;16.00;69.20;;;;;;4995854;28;20037;-77
2021/09/09 12:52:07;;;;;;;4.65;4.35;;;16.00;69.50;;;;;;4996130;28;20026;-78
2021/09/09 12:54:39;;;;;;;4.40;4.10;;;15.90;69.80;;;;;;4997441;28;20014;-78
2021/09/09 12:57:07;;;;;;;3.92;3.72;;;15.90;70.20;;;;;;4999285;28;20021;-77
2021/09/09 12:59:35;;;;;;;3.55;3.35;;;15.90;70.60;;;;;;5004143;28;20057;-77